createdAt,value
2022-09-17T00:00:57.169Z,22.00
2022-09-17T00:04:04.514Z,22.00
2022-09-17T00:07:06.904Z,22.00
2022-09-17T00:10:15.950Z,21.90
2022-09-17T00:13:19.099Z,21.90
2022-09-17T00:16:34.573Z,21.90
2022-09-17T00:19:41.199Z,21.90
2022-09-17T00:22:46.103Z,21.90
2022-09-17T00:25:48.125Z,21.70
2022-09-17T00:28:55.543Z,21.70
2022-09-17T00:32:00.912Z,21.70
2022-09-17T00:35:03.270Z,21.70
2022-09-17T00:38:06.996Z,21.70
2022-09-17T00:41:09.341Z,21.70
2022-09-17T00:44:41.553Z,21.70
2022-09-17T00:47:57.546Z,21.60
2022-09-17T00:51:01.945Z,21.70
2022-09-17T00:54:07.231Z,21.70
2022-09-17T00:57:09.402Z,21.70
2022-09-17T01:00:15.168Z,21.70
2022-09-17T01:03:17.360Z,21.70
2022-09-17T01:06:44.107Z,21.70
2022-09-17T01:09:55.451Z,21.60
2022-09-17T01:13:13.004Z,21.60
2022-09-17T01:16:57.965Z,21.60
2022-09-17T01:20:23.151Z,21.60
2022-09-17T01:23:43.305Z,21.60
2022-09-17T01:27:04.487Z,21.50
2022-09-17T01:30:40.330Z,21.50
2022-09-17T01:34:06.643Z,21.50
2022-09-17T01:37:17.602Z,21.50
2022-09-17T01:40:30.386Z,21.50
2022-09-17T01:43:58.218Z,21.50
2022-09-17T01:47:10.962Z,21.50
2022-09-17T01:50:25.698Z,21.50
2022-09-17T01:53:42.664Z,21.50
2022-09-17T01:57:11.458Z,21.50
2022-09-17T02:00:17.375Z,21.50
2022-09-17T02:03:35.377Z,21.40
2022-09-17T02:06:42.443Z,21.50
2022-09-17T02:10:12.338Z,21.50
2022-09-17T02:13:22.678Z,21.50
2022-09-17T02:16:36.484Z,21.50
2022-09-17T02:19:39.786Z,21.50
2022-09-17T02:23:04.606Z,21.30
2022-09-17T02:26:17.443Z,21.30
2022-09-17T02:29:29.990Z,21.30
2022-09-17T02:32:33.984Z,21.30
2022-09-17T02:35:38.064Z,21.30
2022-09-17T02:38:44.890Z,21.30
2022-09-17T02:42:16.029Z,21.30
2022-09-17T02:45:36.928Z,21.30
2022-09-17T02:48:48.063Z,21.30
2022-09-17T02:51:59.452Z,21.30
2022-09-17T02:55:05.444Z,21.30
2022-09-17T02:58:25.873Z,21.30
2022-09-17T03:01:39.147Z,21.30
2022-09-17T03:04:42.597Z,21.20
2022-09-17T03:07:45.111Z,21.20
2022-09-17T03:10:49.643Z,21.10
2022-09-17T03:14:01.650Z,21.20
2022-09-17T03:17:04.489Z,21.20
2022-09-17T03:20:07.083Z,21.20
2022-09-17T03:23:09.326Z,21.10
2022-09-17T03:26:11.317Z,21.20
2022-09-17T03:29:14.145Z,21.10
2022-09-17T03:32:16.237Z,21.10
2022-09-17T03:35:18.328Z,21.20
2022-09-17T03:38:20.364Z,21.20
2022-09-17T03:41:23.023Z,21.20
2022-09-17T03:44:26.154Z,21.10
2022-09-17T03:47:31.110Z,21.10
2022-09-17T03:50:33.266Z,21.10
2022-09-17T03:53:35.329Z,21.10
2022-09-17T03:56:37.872Z,21.10
2022-09-17T03:59:40.075Z,21.10
2022-09-17T04:02:42.190Z,21.00
2022-09-17T04:05:44.634Z,21.00
2022-09-17T04:08:46.911Z,21.00
2022-09-17T04:11:48.893Z,21.00
2022-09-17T04:14:52.051Z,21.00
2022-09-17T04:18:01.140Z,21.00
2022-09-17T04:21:04.838Z,20.90
2022-09-17T04:24:07.018Z,20.90
2022-09-17T04:27:10.241Z,20.90
2022-09-17T04:30:13.017Z,20.80
2022-09-17T04:33:15.026Z,20.80
2022-09-17T04:36:17.693Z,20.80
2022-09-17T04:39:19.776Z,20.80
2022-09-17T04:42:21.820Z,20.80
2022-09-17T04:45:24.228Z,20.80
2022-09-17T04:48:26.411Z,20.80
2022-09-17T04:51:28.531Z,20.90
2022-09-17T04:54:30.565Z,20.80
2022-09-17T04:57:32.715Z,20.80
2022-09-17T05:00:35.677Z,20.80
2022-09-17T05:03:37.826Z,20.60
2022-09-17T05:06:40.330Z,20.60
2022-09-17T05:09:42.913Z,20.70
2022-09-17T05:12:56.134Z,20.70
2022-09-17T05:15:58.255Z,20.70
2022-09-17T05:19:01.902Z,20.70
2022-09-17T05:22:04.490Z,20.70
2022-09-17T05:25:09.533Z,20.70
2022-09-17T05:28:11.669Z,20.70
2022-09-17T05:31:14.003Z,20.70
2022-09-17T05:34:16.105Z,20.70
2022-09-17T05:37:18.193Z,20.70
2022-09-17T05:40:20.302Z,20.60
2022-09-17T05:43:24.073Z,20.60
2022-09-17T05:46:26.183Z,20.60
2022-09-17T05:49:28.177Z,20.60
2022-09-17T05:52:30.345Z,20.70
2022-09-17T05:55:32.829Z,20.70
2022-09-17T05:58:34.981Z,20.60
2022-09-17T06:01:37.089Z,20.60
2022-09-17T06:04:39.216Z,20.60
2022-09-17T06:07:41.272Z,20.60
2022-09-17T06:10:43.317Z,20.60
2022-09-17T06:13:45.317Z,20.60
2022-09-17T06:16:47.385Z,20.60
2022-09-17T06:19:49.586Z,20.60
2022-09-17T06:23:05.204Z,20.60
2022-09-17T06:26:07.449Z,20.60
2022-09-17T06:29:09.544Z,20.70
2022-09-17T06:32:13.125Z,20.70
2022-09-17T06:35:15.365Z,20.70
2022-09-17T06:38:17.433Z,20.70
2022-09-17T06:41:19.436Z,20.80
2022-09-17T06:44:21.421Z,20.90
2022-09-17T06:47:25.320Z,21.20
2022-09-17T06:50:27.407Z,21.60
2022-09-17T06:53:29.888Z,22.20
2022-09-17T06:56:34.438Z,22.50
2022-09-17T06:59:36.524Z,23.00
2022-09-17T07:02:38.553Z,23.60
2022-09-17T07:05:43.419Z,23.80
2022-09-17T07:08:47.145Z,24.50
2022-09-17T07:11:49.262Z,25.10
2022-09-17T07:14:51.295Z,25.80
2022-09-17T07:17:53.726Z,26.40
2022-09-17T07:20:57.846Z,27.20
2022-09-17T07:24:00.395Z,27.80
2022-09-17T07:27:02.652Z,28.20
2022-09-17T07:30:05.487Z,28.50
2022-09-17T07:33:08.121Z,29.20
2022-09-17T07:36:15.761Z,30.10
2022-09-17T07:39:18.745Z,30.70
2022-09-17T07:42:21.226Z,31.00
2022-09-17T07:45:23.511Z,31.40
2022-09-17T07:48:26.256Z,31.70
2022-09-17T07:51:30.269Z,31.90
2022-09-17T07:54:34.580Z,32.40
2022-09-17T07:57:36.901Z,32.20
2022-09-17T08:00:38.927Z,32.30
2022-09-17T08:03:41.528Z,33.10
2022-09-17T08:06:44.023Z,34.00
2022-09-17T08:09:46.075Z,34.50
2022-09-17T08:12:49.405Z,35.00
2022-09-17T08:15:51.329Z,35.30
2022-09-17T08:18:57.304Z,35.50
2022-09-17T08:21:59.530Z,35.90
2022-09-17T08:25:02.263Z,36.10
2022-09-17T08:28:04.409Z,35.10
2022-09-17T08:31:08.801Z,35.90
2022-09-17T08:34:11.247Z,36.60
2022-09-17T08:37:13.264Z,37.40
2022-09-17T08:40:21.346Z,37.60
2022-09-17T08:43:25.202Z,37.70
2022-09-17T08:46:33.532Z,37.60
2022-09-17T08:49:58.904Z,38.20
2022-09-17T08:53:25.635Z,38.00
2022-09-17T08:56:28.254Z,37.80
2022-09-17T08:59:49.855Z,38.50
2022-09-17T09:03:18.907Z,38.70
2022-09-17T09:06:25.485Z,38.30
2022-09-17T09:09:44.877Z,38.50
2022-09-17T09:12:47.892Z,38.50
2022-09-17T09:15:58.856Z,38.60
2022-09-17T09:19:18.408Z,38.90
2022-09-17T09:22:43.511Z,39.70
2022-09-17T09:26:18.025Z,40.30
2022-09-17T09:29:32.011Z,40.30
2022-09-17T09:32:54.102Z,39.50
2022-09-17T09:35:56.168Z,39.40
2022-09-17T09:39:14.318Z,39.90
2022-09-17T09:42:33.259Z,41.00
2022-09-17T09:45:43.992Z,39.40
2022-09-17T09:48:52.132Z,40.30
2022-09-17T09:52:05.656Z,40.50
2022-09-17T09:55:26.769Z,40.90
2022-09-17T09:58:36.551Z,41.30
2022-09-17T10:01:41.782Z,41.30
2022-09-17T10:04:44.194Z,40.40
2022-09-17T10:07:47.106Z,40.30
2022-09-17T10:11:07.428Z,40.40
2022-09-17T10:14:25.958Z,39.40
2022-09-17T10:17:29.319Z,40.30
2022-09-17T10:20:31.994Z,40.80
2022-09-17T10:23:38.669Z,41.10
2022-09-17T10:26:40.903Z,40.90
2022-09-17T10:30:17.301Z,40.90
2022-09-17T10:33:27.759Z,41.40
2022-09-17T10:36:57.352Z,40.90
2022-09-17T10:40:01.489Z,40.50
2022-09-17T10:43:22.002Z,40.50
2022-09-17T10:46:30.589Z,41.00
2022-09-17T10:50:14.522Z,41.20
2022-09-17T10:53:18.062Z,41.20
2022-09-17T10:56:32.286Z,40.80
2022-09-17T10:59:51.168Z,40.30
2022-09-17T11:03:05.395Z,40.50
2022-09-17T11:06:25.588Z,39.70
2022-09-17T11:09:34.735Z,39.90
2022-09-17T11:13:12.108Z,40.10
2022-09-17T11:16:34.150Z,40.20
2022-09-17T11:20:00.434Z,40.00
2022-09-17T11:23:08.333Z,39.20
2022-09-17T11:26:47.822Z,39.10
2022-09-17T11:30:06.246Z,39.20
2022-09-17T11:33:25.494Z,39.00
2022-09-17T11:36:37.139Z,38.40
2022-09-17T11:39:41.918Z,37.90
2022-09-17T11:43:12.868Z,37.10
2022-09-17T11:46:40.945Z,36.10
2022-09-17T11:50:04.306Z,35.10
2022-09-17T11:53:57.125Z,34.40
2022-09-17T11:57:09.906Z,33.40
2022-09-17T12:00:20.645Z,32.60
2022-09-17T12:03:32.897Z,32.40
2022-09-17T12:06:43.586Z,32.30
2022-09-17T12:09:53.930Z,32.00
2022-09-17T12:13:24.540Z,31.80
2022-09-17T12:16:43.054Z,31.60
2022-09-17T12:19:50.918Z,31.20
2022-09-17T12:22:55.586Z,31.10
2022-09-17T12:26:19.827Z,31.10
2022-09-17T12:29:30.962Z,31.00
2022-09-17T12:32:48.148Z,30.90
2022-09-17T12:36:03.928Z,30.70
2022-09-17T12:39:24.914Z,30.20
2022-09-17T12:42:47.936Z,30.10
2022-09-17T12:46:34.905Z,30.10
2022-09-17T12:49:39.674Z,30.10
2022-09-17T12:52:54.051Z,30.10
2022-09-17T12:56:18.057Z,30.20
2022-09-17T12:59:21.028Z,30.20
2022-09-17T13:02:33.747Z,30.10
2022-09-17T13:05:51.485Z,30.20
2022-09-17T13:09:18.347Z,30.10
2022-09-17T13:12:39.649Z,30.10
2022-09-17T13:16:47.252Z,30.10
2022-09-17T13:20:33.751Z,30.00
2022-09-17T13:23:39.658Z,29.80
2022-09-17T13:26:42.332Z,30.00
2022-09-17T13:29:47.018Z,30.00
2022-09-17T13:32:51.723Z,30.00
2022-09-17T13:35:53.938Z,30.10
2022-09-17T13:38:59.559Z,30.30
2022-09-17T13:42:29.086Z,30.40
2022-09-17T13:45:33.844Z,30.40
2022-09-17T13:48:38.262Z,30.40
2022-09-17T13:51:40.432Z,30.40
2022-09-17T13:54:43.369Z,30.30
2022-09-17T13:57:51.032Z,30.50
2022-09-17T14:00:53.328Z,30.50
2022-09-17T14:03:57.197Z,30.60
2022-09-17T14:06:59.776Z,30.60
2022-09-17T14:10:17.102Z,30.70
2022-09-17T14:13:39.576Z,30.80
2022-09-17T14:16:46.361Z,30.90
2022-09-17T14:19:51.618Z,31.00
2022-09-17T14:23:02.123Z,31.10
2022-09-17T14:26:08.268Z,31.20
2022-09-17T14:29:19.698Z,31.20
2022-09-17T14:33:00.808Z,31.30
2022-09-17T14:36:11.687Z,31.40
2022-09-17T14:39:22.346Z,31.50
2022-09-17T14:42:35.266Z,31.50
2022-09-17T14:45:42.804Z,31.40
2022-09-17T14:48:44.854Z,31.30
2022-09-17T14:51:47.193Z,31.20
2022-09-17T14:54:49.211Z,31.10
2022-09-17T14:57:57.372Z,31.10
2022-09-17T15:00:59.731Z,30.90
2022-09-17T15:04:14.367Z,31.00
2022-09-17T15:07:20.421Z,31.00
2022-09-17T15:10:23.210Z,31.00
2022-09-17T15:13:35.877Z,31.00
2022-09-17T15:16:39.541Z,31.10
2022-09-17T15:19:45.584Z,31.10
2022-09-17T15:22:58.129Z,31.10
2022-09-17T15:26:01.324Z,31.10
2022-09-17T15:29:05.684Z,30.90
2022-09-17T15:32:14.103Z,30.90
2022-09-17T15:35:16.302Z,30.90
2022-09-17T15:38:26.899Z,30.80
2022-09-17T15:41:36.847Z,30.80
2022-09-17T15:44:38.855Z,30.90
2022-09-17T15:47:54.430Z,30.80
2022-09-17T15:50:58.636Z,30.90
2022-09-17T15:54:05.092Z,30.70
2022-09-17T15:57:15.717Z,30.70
2022-09-17T16:00:21.619Z,30.60
2022-09-17T16:03:58.599Z,30.40
2022-09-17T16:07:02.260Z,30.50
2022-09-17T16:10:04.242Z,30.30
2022-09-17T16:13:06.370Z,30.20
2022-09-17T16:16:12.555Z,30.00
2022-09-17T16:19:14.726Z,30.10
2022-09-17T16:22:16.953Z,29.90
2022-09-17T16:25:27.815Z,29.80
2022-09-17T16:28:30.739Z,29.70
2022-09-17T16:31:34.350Z,29.70
2022-09-17T16:34:36.379Z,29.70
2022-09-17T16:37:38.409Z,29.50
2022-09-17T16:40:47.246Z,29.50
2022-09-17T16:43:49.256Z,29.40
2022-09-17T16:46:51.298Z,29.30
2022-09-17T16:49:53.609Z,29.20
2022-09-17T16:52:55.849Z,29.20
2022-09-17T16:55:57.936Z,29.20
2022-09-17T16:59:00.123Z,29.30
2022-09-17T17:02:03.187Z,29.20
2022-09-17T17:05:05.791Z,29.10
2022-09-17T17:08:09.246Z,29.10
2022-09-17T17:11:11.539Z,28.80
2022-09-17T17:14:14.883Z,28.80
2022-09-17T17:17:18.596Z,28.70
2022-09-17T17:20:20.909Z,28.60
2022-09-17T17:23:23.609Z,28.50
2022-09-17T17:26:25.901Z,28.40
2022-09-17T17:29:27.932Z,28.20
2022-09-17T17:32:30.025Z,28.20
2022-09-17T17:35:32.046Z,28.20
2022-09-17T17:38:36.004Z,28.20
2022-09-17T17:41:40.924Z,28.10
2022-09-17T17:44:42.947Z,28.00
2022-09-17T17:47:45.008Z,27.90
2022-09-17T17:50:47.292Z,27.90
2022-09-17T17:53:49.436Z,27.90
2022-09-17T17:56:51.552Z,27.70
2022-09-17T17:59:53.536Z,27.50
2022-09-17T18:02:55.684Z,27.50
2022-09-17T18:05:57.812Z,27.40
2022-09-17T18:09:01.323Z,27.40
2022-09-17T18:12:03.762Z,27.30
2022-09-17T18:15:07.289Z,27.20
2022-09-17T18:18:09.404Z,27.20
2022-09-17T18:21:15.937Z,27.10
2022-09-17T18:24:19.073Z,27.00
2022-09-17T18:27:21.076Z,26.90
2022-09-17T18:30:23.345Z,26.80
2022-09-17T18:33:27.746Z,26.70
2022-09-17T18:36:32.585Z,26.70
2022-09-17T18:42:57.544Z,26.60
2022-09-17T18:46:00.832Z,26.50
2022-09-17T18:49:04.354Z,26.40
2022-09-17T18:52:06.716Z,26.30
2022-09-17T18:55:09.389Z,26.30
2022-09-17T18:58:11.433Z,26.30
2022-09-17T19:01:14.252Z,26.30
2022-09-17T19:04:16.307Z,26.20
2022-09-17T19:07:18.298Z,26.10
2022-09-17T19:10:20.583Z,26.10
2022-09-17T19:13:22.714Z,26.00
2022-09-17T19:16:24.778Z,26.00
2022-09-17T19:19:26.829Z,25.90
2022-09-17T19:22:29.768Z,25.90
2022-09-17T19:25:32.711Z,25.90
2022-09-17T19:28:35.744Z,25.80
2022-09-17T19:31:39.800Z,25.80
2022-09-17T19:34:42.780Z,25.80
2022-09-17T19:37:44.783Z,25.80
2022-09-17T19:40:56.548Z,25.70
2022-09-17T19:43:58.661Z,25.60
2022-09-17T19:47:00.852Z,25.60
2022-09-17T19:50:02.993Z,25.60
2022-09-17T19:53:05.406Z,25.60
2022-09-17T19:56:11.057Z,25.60
2022-09-17T19:59:13.398Z,25.50
2022-09-17T20:02:15.903Z,25.60
2022-09-17T20:05:18.176Z,25.50
2022-09-17T20:08:20.445Z,25.50
2022-09-17T20:11:25.023Z,25.40
2022-09-17T20:14:30.034Z,25.40
2022-09-17T20:17:32.129Z,25.40
2022-09-17T20:20:41.998Z,25.40
2022-09-17T20:23:44.953Z,25.40
2022-09-17T20:26:47.346Z,25.30
2022-09-17T20:29:49.587Z,25.40
2022-09-17T20:32:54.716Z,25.30
2022-09-17T20:36:05.824Z,25.30
2022-09-17T20:39:14.320Z,25.40
2022-09-17T20:42:20.574Z,25.30
2022-09-17T20:45:23.046Z,25.30
2022-09-17T20:48:25.349Z,25.30
2022-09-17T20:51:29.849Z,25.30
2022-09-17T20:54:32.058Z,25.30
2022-09-17T20:57:34.387Z,25.20
2022-09-17T21:00:36.747Z,25.20
2022-09-17T21:03:44.394Z,25.20
2022-09-17T21:06:48.420Z,25.20
2022-09-17T21:09:50.823Z,25.20
2022-09-17T21:12:52.917Z,25.20
2022-09-17T21:16:01.304Z,25.10
2022-09-17T21:19:06.474Z,25.10
2022-09-17T21:22:08.647Z,25.10
2022-09-17T21:25:11.036Z,25.10
2022-09-17T21:28:13.323Z,25.10
2022-09-17T21:31:31.716Z,25.10
2022-09-17T21:34:34.337Z,25.00
2022-09-17T21:37:36.561Z,25.00
2022-09-17T21:40:39.019Z,25.00
2022-09-17T21:43:42.628Z,25.00
2022-09-17T21:46:44.752Z,25.00
2022-09-17T21:49:46.951Z,24.90
2022-09-17T21:52:49.003Z,24.90
2022-09-17T21:55:51.381Z,24.80
2022-09-17T21:58:56.477Z,24.80
2022-09-17T22:01:58.744Z,24.80
2022-09-17T22:05:01.034Z,24.70
2022-09-17T22:08:03.774Z,24.70
2022-09-17T22:11:11.411Z,24.70
2022-09-17T22:14:19.798Z,24.60
2022-09-17T22:17:22.859Z,24.60
2022-09-17T22:20:25.768Z,24.60
2022-09-17T22:23:28.279Z,24.50
2022-09-17T22:26:32.958Z,24.60
2022-09-17T22:29:35.409Z,24.60
2022-09-17T22:32:37.597Z,24.60
2022-09-17T22:35:39.681Z,24.60
2022-09-17T22:38:46.725Z,24.60
2022-09-17T22:41:49.268Z,24.50
2022-09-17T22:44:51.721Z,24.50
2022-09-17T22:47:54.047Z,24.50
2022-09-17T22:50:56.241Z,24.50
2022-09-17T22:53:59.287Z,24.50
2022-09-17T22:57:01.422Z,24.40
2022-09-17T23:00:05.019Z,24.40
2022-09-17T23:03:07.560Z,24.40
2022-09-17T23:06:13.065Z,24.40
2022-09-17T23:09:23.857Z,24.30
2022-09-17T23:12:26.306Z,24.30
2022-09-17T23:15:29.007Z,24.30
2022-09-17T23:18:32.345Z,24.30
2022-09-17T23:21:34.497Z,24.30
2022-09-17T23:24:37.923Z,24.20
2022-09-17T23:27:40.146Z,24.20
2022-09-17T23:30:42.408Z,24.20
2022-09-17T23:33:48.195Z,24.20
2022-09-17T23:36:50.299Z,24.20
2022-09-17T23:39:52.642Z,24.20
2022-09-17T23:42:55.919Z,24.20
2022-09-17T23:45:58.261Z,24.20
2022-09-17T23:49:01.045Z,24.10
2022-09-17T23:52:03.419Z,24.10
2022-09-17T23:55:07.385Z,24.10
2022-09-17T23:58:09.669Z,24.10
